createdAt,value
2022-08-19T00:01:56.750Z,9.98
2022-08-19T00:04:29.725Z,13.02
2022-08-19T00:06:58.889Z,9.38
2022-08-19T00:09:29.245Z,8.00
2022-08-19T00:12:00.592Z,11.00
2022-08-19T00:14:32.978Z,9.65
2022-08-19T00:17:04.419Z,9.27
2022-08-19T00:19:35.075Z,10.13
2022-08-19T00:22:04.620Z,12.93
2022-08-19T00:24:33.720Z,10.88
2022-08-19T00:27:25.043Z,8.40
2022-08-19T00:29:52.481Z,8.70
2022-08-19T00:32:22.180Z,9.75
2022-08-19T00:34:54.605Z,10.05
2022-08-19T00:37:24.347Z,10.50
2022-08-19T00:39:53.408Z,9.55
2022-08-19T00:42:24.034Z,9.82
2022-08-19T00:44:52.974Z,8.20
2022-08-19T00:47:21.694Z,9.93
2022-08-19T00:49:54.824Z,8.88
2022-08-19T00:52:26.696Z,6.65
2022-08-19T00:54:56.054Z,7.72
2022-08-19T00:57:29.475Z,9.68
2022-08-19T01:00:02.478Z,9.95
2022-08-19T01:02:33.314Z,11.48
2022-08-19T01:05:07.584Z,8.80
2022-08-19T01:07:42.804Z,10.88
2022-08-19T01:10:19.545Z,10.93
2022-08-19T01:12:49.281Z,11.50
2022-08-19T01:15:23.664Z,8.88
2022-08-19T01:17:53.064Z,9.60
2022-08-19T01:20:25.734Z,9.95
2022-08-19T01:22:58.134Z,9.15
2022-08-19T01:25:31.945Z,10.20
2022-08-19T01:28:10.590Z,9.85
2022-08-19T01:30:39.930Z,8.68
2022-08-19T01:33:14.684Z,10.55
2022-08-19T01:35:44.045Z,8.40
2022-08-19T01:38:23.884Z,9.32
2022-08-19T01:40:52.965Z,9.10
2022-08-19T01:43:22.026Z,9.23
2022-08-19T01:45:52.174Z,6.97
2022-08-19T01:48:20.794Z,7.15
2022-08-19T01:50:49.725Z,9.05
2022-08-19T01:53:19.644Z,8.82
2022-08-19T01:55:49.815Z,8.98
2022-08-19T01:58:25.174Z,7.38
2022-08-19T02:00:53.814Z,9.32
2022-08-19T02:03:22.309Z,7.38
2022-08-19T02:05:56.236Z,9.48
2022-08-19T02:08:26.515Z,8.57
2022-08-19T02:10:55.204Z,6.55
2022-08-19T02:13:26.467Z,6.70
2022-08-19T02:15:55.644Z,9.93
2022-08-19T02:18:28.057Z,9.43
2022-08-19T02:20:56.734Z,7.07
2022-08-19T02:23:28.464Z,9.88
2022-08-19T02:25:57.387Z,8.27
2022-08-19T02:28:25.984Z,7.65
2022-08-19T02:30:54.554Z,10.65
2022-08-19T02:33:23.155Z,9.18
2022-08-19T02:35:51.705Z,8.13
2022-08-19T02:38:28.375Z,10.88
2022-08-19T02:41:00.605Z,7.28
2022-08-19T02:43:33.803Z,8.70
2022-08-19T02:46:04.024Z,6.55
2022-08-19T02:48:34.137Z,7.55
2022-08-19T02:51:02.726Z,7.45
2022-08-19T02:53:31.755Z,8.63
2022-08-19T02:56:01.895Z,7.70
2022-08-19T02:58:30.494Z,7.47
2022-08-19T03:00:59.877Z,9.20
2022-08-19T03:03:29.054Z,7.30
2022-08-19T03:06:09.273Z,7.68
2022-08-19T03:08:38.306Z,8.23
2022-08-19T03:11:08.854Z,5.68
2022-08-19T03:13:37.364Z,8.77
2022-08-19T03:16:08.325Z,4.97
2022-08-19T03:18:36.884Z,9.52
2022-08-19T03:21:07.474Z,7.75
2022-08-19T03:23:41.517Z,8.00
2022-08-19T03:26:16.373Z,8.65
2022-08-19T03:31:41.697Z,7.60
2022-08-19T03:34:13.650Z,6.65
2022-08-19T03:36:42.535Z,6.40
2022-08-19T03:39:12.655Z,9.30
2022-08-19T03:41:48.328Z,8.05
2022-08-19T03:44:21.802Z,7.93
2022-08-19T03:46:51.924Z,7.55
2022-08-19T03:49:21.205Z,8.38
2022-08-19T03:51:57.724Z,10.85
2022-08-19T03:54:27.351Z,7.57
2022-08-19T03:56:58.529Z,6.03
2022-08-19T03:59:29.380Z,8.63
2022-08-19T04:02:00.299Z,8.73
2022-08-19T04:04:29.074Z,7.20
2022-08-19T04:06:58.899Z,7.35
2022-08-19T04:09:28.209Z,6.90
2022-08-19T04:12:00.073Z,8.30
2022-08-19T04:14:31.879Z,6.60
2022-08-19T04:17:01.550Z,7.72
2022-08-19T04:19:32.440Z,6.28
2022-08-19T04:22:00.972Z,6.00
2022-08-19T04:24:30.319Z,9.45
2022-08-19T04:27:02.099Z,6.88
2022-08-19T04:29:31.419Z,7.63
2022-08-19T04:32:09.406Z,6.15
2022-08-19T04:35:02.640Z,8.10
2022-08-19T04:37:35.030Z,5.70
2022-08-19T04:40:23.869Z,6.10
2022-08-19T04:42:55.068Z,7.72
2022-08-19T04:45:23.927Z,5.30
2022-08-19T04:47:58.940Z,6.22
2022-08-19T04:50:46.321Z,8.35
2022-08-19T04:53:14.869Z,6.68
2022-08-19T04:55:44.449Z,7.65
2022-08-19T04:58:14.409Z,7.47
2022-08-19T05:00:43.046Z,6.95
2022-08-19T05:03:11.620Z,7.90
2022-08-19T05:05:44.716Z,5.53
2022-08-19T05:08:15.309Z,6.93
2022-08-19T05:10:45.769Z,7.03
2022-08-19T05:13:15.789Z,6.70
2022-08-19T05:15:44.530Z,6.80
2022-08-19T05:18:30.628Z,4.97
2022-08-19T05:23:45.671Z,6.00
2022-08-19T05:26:14.134Z,5.38
2022-08-19T05:28:43.999Z,6.80
2022-08-19T05:31:13.290Z,6.65
2022-08-19T05:33:42.019Z,6.20
2022-08-19T05:36:10.550Z,5.80
2022-08-19T05:38:39.050Z,7.22
2022-08-19T05:41:10.371Z,5.05
2022-08-19T05:43:39.526Z,4.75
2022-08-19T05:46:09.949Z,7.57
2022-08-19T05:48:38.539Z,7.97
2022-08-19T05:51:08.220Z,6.03
2022-08-19T05:53:37.548Z,8.65
2022-08-19T05:56:08.080Z,6.82
2022-08-19T05:58:37.571Z,6.18
2022-08-19T06:01:07.079Z,7.93
2022-08-19T06:03:38.609Z,6.78
2022-08-19T06:06:07.549Z,5.75
2022-08-19T06:08:37.450Z,7.70
2022-08-19T06:11:20.805Z,6.32
2022-08-19T06:13:52.189Z,7.15
2022-08-19T06:16:29.020Z,8.68
2022-08-19T06:19:02.299Z,6.90
2022-08-19T06:21:32.410Z,8.10
2022-08-19T06:24:01.881Z,5.63
2022-08-19T06:26:30.579Z,5.65
2022-08-19T06:28:59.819Z,5.35
2022-08-19T06:31:32.505Z,6.13
2022-08-19T06:34:04.043Z,5.75
2022-08-19T06:36:35.501Z,5.03
2022-08-19T06:39:05.622Z,6.07
2022-08-19T06:41:39.463Z,7.10
2022-08-19T06:44:13.290Z,6.30
2022-08-19T06:46:42.942Z,5.22
2022-08-19T06:49:15.209Z,6.25
2022-08-19T06:51:47.550Z,5.63
2022-08-19T06:54:20.069Z,7.95
2022-08-19T06:56:49.371Z,5.55
2022-08-19T06:59:19.594Z,6.22
2022-08-19T07:01:50.830Z,5.47
2022-08-19T07:04:22.491Z,6.30
2022-08-19T07:06:55.281Z,5.00
2022-08-19T07:09:24.249Z,6.22
2022-08-19T07:11:54.689Z,4.53
2022-08-19T07:14:27.810Z,5.32
2022-08-19T07:16:59.220Z,7.05
2022-08-19T07:19:29.652Z,5.22
2022-08-19T07:21:58.190Z,4.85
2022-08-19T07:24:28.622Z,4.95
2022-08-19T07:27:04.449Z,5.47
2022-08-19T07:29:39.179Z,6.78
2022-08-19T07:32:11.724Z,5.18
2022-08-19T07:34:43.410Z,7.97
2022-08-19T07:37:12.240Z,5.95
2022-08-19T07:39:41.870Z,4.65
2022-08-19T07:42:13.194Z,6.55
2022-08-19T07:44:43.085Z,5.13
2022-08-19T07:47:49.137Z,3.97
2022-08-19T07:50:12.834Z,5.72
2022-08-19T07:52:41.749Z,4.90
2022-08-19T07:55:42.262Z,4.80
2022-08-19T07:58:00.255Z,5.13
2022-08-19T08:00:29.165Z,4.53
2022-08-19T08:02:57.682Z,5.47
2022-08-19T08:05:45.026Z,6.65
2022-08-19T08:08:31.075Z,4.43
2022-08-19T08:11:01.227Z,5.82
2022-08-19T08:13:30.324Z,4.80
2022-08-19T08:15:59.274Z,6.35
2022-08-19T08:18:30.424Z,3.05
2022-08-19T08:21:01.278Z,5.80
2022-08-19T08:23:31.395Z,5.07
2022-08-19T08:26:00.564Z,4.10
2022-08-19T08:28:30.916Z,5.72
2022-08-19T08:31:00.345Z,8.05
2022-08-19T08:33:33.686Z,5.40
2022-08-19T08:36:06.824Z,3.85
2022-08-19T08:38:43.008Z,5.53
2022-08-19T08:41:20.923Z,5.80
2022-08-19T08:43:53.300Z,6.88
2022-08-19T08:46:31.579Z,4.28
2022-08-19T08:49:06.924Z,5.82
2022-08-19T08:54:17.938Z,6.25
2022-08-19T08:56:48.405Z,4.20
2022-08-19T08:59:25.834Z,3.97
2022-08-19T09:01:54.536Z,5.45
2022-08-19T09:04:23.887Z,4.93
2022-08-19T09:07:18.232Z,6.18
2022-08-19T09:09:56.186Z,7.88
2022-08-19T09:12:35.525Z,5.60
2022-08-19T09:15:09.194Z,7.15
2022-08-19T09:17:39.667Z,7.38
2022-08-19T09:20:21.434Z,7.43
2022-08-19T09:22:51.934Z,8.05
2022-08-19T09:25:26.754Z,8.88
2022-08-19T09:28:02.391Z,5.57
2022-08-19T09:33:02.274Z,6.65
2022-08-19T09:35:32.055Z,6.03
2022-08-19T09:38:20.155Z,6.35
2022-08-19T09:40:48.615Z,8.10
2022-08-19T09:43:32.952Z,5.15
2022-08-19T09:46:03.004Z,6.05
2022-08-19T09:48:31.474Z,8.35
2022-08-19T09:51:06.344Z,6.07
2022-08-19T09:53:36.264Z,7.90
2022-08-19T09:56:08.305Z,5.55
2022-08-19T09:58:38.414Z,7.38
2022-08-19T10:01:08.237Z,5.57
2022-08-19T10:03:38.976Z,5.40
2022-08-19T10:06:15.120Z,6.18
2022-08-19T10:08:50.208Z,7.82
2022-08-19T10:11:27.371Z,6.05
2022-08-19T10:14:03.565Z,6.60
2022-08-19T10:16:32.844Z,5.07
2022-08-19T10:19:08.144Z,5.80
2022-08-19T10:21:36.764Z,4.25
2022-08-19T10:24:09.344Z,6.55
2022-08-19T10:26:43.173Z,5.70
2022-08-19T10:29:12.845Z,5.70
2022-08-19T10:32:00.546Z,5.57
2022-08-19T10:34:31.903Z,7.32
2022-08-19T10:37:01.896Z,5.47
2022-08-19T10:39:42.415Z,5.80
2022-08-19T10:42:14.362Z,1.98
2022-08-19T10:44:43.545Z,6.50
2022-08-19T10:47:24.415Z,5.53
2022-08-19T10:50:13.401Z,5.38
2022-08-19T10:52:49.054Z,5.72
2022-08-19T10:55:39.251Z,5.80
2022-08-19T10:58:12.903Z,8.23
2022-08-19T11:00:42.234Z,6.35
2022-08-19T11:03:11.113Z,5.78
2022-08-19T11:05:40.684Z,5.60
2022-08-19T11:08:23.131Z,6.50
2022-08-19T11:11:00.413Z,3.03
2022-08-19T11:13:29.743Z,1.88
2022-08-19T11:16:07.390Z,2.67
2022-08-19T11:18:38.523Z,2.00
2022-08-19T11:21:15.954Z,4.15
2022-08-19T11:23:44.554Z,2.55
2022-08-19T11:26:15.089Z,3.45
2022-08-19T11:29:06.524Z,2.03
2022-08-19T11:34:33.954Z,3.20
2022-08-19T11:37:10.187Z,5.25
2022-08-19T11:42:23.974Z,3.65
2022-08-19T11:45:58.454Z,3.55
2022-08-19T11:48:53.352Z,2.08
2022-08-19T11:51:25.824Z,2.85
2022-08-19T11:53:59.599Z,4.30
2022-08-19T11:57:04.034Z,2.63
2022-08-19T11:59:36.626Z,4.45
2022-08-19T12:02:05.693Z,1.83
2022-08-19T12:04:34.124Z,2.78
2022-08-19T12:07:03.113Z,2.50
2022-08-19T12:10:25.867Z,3.15
2022-08-19T12:13:04.574Z,2.17
2022-08-19T12:15:38.253Z,3.30
2022-08-19T12:18:07.613Z,1.95
2022-08-19T12:20:38.334Z,2.20
2022-08-19T12:23:08.633Z,2.72
2022-08-19T12:25:37.335Z,3.80
2022-08-19T12:28:06.445Z,2.83
2022-08-19T12:30:39.934Z,1.95
2022-08-19T12:33:09.005Z,4.53
2022-08-19T12:35:45.788Z,4.03
2022-08-19T12:38:28.985Z,2.85
2022-08-19T12:41:08.884Z,3.67
2022-08-19T12:43:40.758Z,3.50
2022-08-19T12:46:14.635Z,2.42
2022-08-19T12:48:46.045Z,4.28
2022-08-19T12:51:17.264Z,3.17
2022-08-19T12:53:46.875Z,2.53
2022-08-19T12:56:20.070Z,5.25
2022-08-19T12:58:52.900Z,2.45
2022-08-19T13:01:24.034Z,4.93
2022-08-19T13:03:55.075Z,3.80
2022-08-19T13:06:24.499Z,3.53
2022-08-19T13:08:57.740Z,4.65
2022-08-19T13:11:28.386Z,3.85
2022-08-19T13:13:57.523Z,4.70
2022-08-19T13:16:29.064Z,3.55
2022-08-19T13:18:59.209Z,5.30
2022-08-19T13:21:31.213Z,3.42
2022-08-19T13:24:00.614Z,5.10
2022-08-19T13:26:29.314Z,4.28
2022-08-19T13:29:15.464Z,3.17
2022-08-19T13:32:02.955Z,4.15
2022-08-19T13:34:36.934Z,3.47
2022-08-19T13:37:08.849Z,4.55
2022-08-19T13:39:38.250Z,4.50
2022-08-19T13:42:08.505Z,3.15
2022-08-19T13:44:37.454Z,3.58
2022-08-19T13:47:08.874Z,3.42
2022-08-19T13:49:38.665Z,4.50
2022-08-19T13:52:10.564Z,2.50
2022-08-19T13:54:42.446Z,7.55
2022-08-19T13:57:11.264Z,9.68
2022-08-19T13:59:40.575Z,8.73
2022-08-19T14:02:14.625Z,8.02
2022-08-19T14:04:43.445Z,10.25
2022-08-19T14:07:12.670Z,15.48
2022-08-19T14:09:41.494Z,9.20
2022-08-19T14:12:11.179Z,6.95
2022-08-19T14:14:40.739Z,7.22
2022-08-19T14:17:12.181Z,6.40
2022-08-19T14:19:42.580Z,8.75
2022-08-19T14:22:22.128Z,6.55
2022-08-19T14:24:51.517Z,7.35
2022-08-19T14:27:20.149Z,8.43
2022-08-19T14:29:48.804Z,8.10
2022-08-19T14:32:18.929Z,9.38
2022-08-19T14:34:47.850Z,8.40
2022-08-19T14:37:16.765Z,7.97
2022-08-19T14:39:46.267Z,6.90
2022-08-19T14:42:16.095Z,7.57
2022-08-19T14:44:55.109Z,9.80
2022-08-19T14:48:01.225Z,10.73
2022-08-19T14:50:38.544Z,6.65
2022-08-19T14:53:12.545Z,6.82
2022-08-19T14:55:45.465Z,6.82
2022-08-19T14:58:29.026Z,6.88
2022-08-19T15:01:00.950Z,5.13
2022-08-19T15:03:32.754Z,7.57
2022-08-19T15:06:03.274Z,5.78
2022-08-19T15:08:33.907Z,8.82
2022-08-19T15:11:03.394Z,8.13
2022-08-19T15:13:32.474Z,6.22
2022-08-19T15:20:53.146Z,5.85
2022-08-19T15:24:31.279Z,6.68
2022-08-19T15:27:00.184Z,8.18
2022-08-19T15:29:28.878Z,6.97
2022-08-19T15:31:58.334Z,5.55
2022-08-19T15:34:28.164Z,8.18
2022-08-19T15:37:00.177Z,9.23
2022-08-19T15:39:28.734Z,6.68
2022-08-19T15:41:57.254Z,12.43
2022-08-19T15:44:25.885Z,7.55
2022-08-19T15:47:11.760Z,7.70
2022-08-19T15:50:00.554Z,8.73
2022-08-19T15:53:03.775Z,9.25
2022-08-19T15:55:35.526Z,7.60
2022-08-19T15:58:29.289Z,6.90
2022-08-19T16:01:20.470Z,9.38
2022-08-19T16:04:14.669Z,9.18
2022-08-19T16:06:47.394Z,8.50
2022-08-19T16:09:17.217Z,6.45
2022-08-19T16:11:56.546Z,7.15
2022-08-19T16:14:26.594Z,6.75
2022-08-19T16:16:58.162Z,6.50
2022-08-19T16:19:27.686Z,8.40
2022-08-19T16:21:58.295Z,6.50
2022-08-19T16:24:29.466Z,5.75
2022-08-19T16:27:21.970Z,5.57
2022-08-19T16:30:35.464Z,6.10
2022-08-19T16:33:26.336Z,7.80
2022-08-19T16:39:49.400Z,5.78
2022-08-19T16:42:19.576Z,6.18
2022-08-19T16:44:48.165Z,6.00
2022-08-19T16:47:18.264Z,7.15
2022-08-19T16:49:53.817Z,5.45
2022-08-19T16:55:29.645Z,5.70
2022-08-19T16:58:02.345Z,6.47
2022-08-19T17:00:32.754Z,5.05
2022-08-19T17:03:15.418Z,5.97
2022-08-19T17:05:52.195Z,5.75
2022-08-19T17:08:30.280Z,6.20
2022-08-19T17:11:17.005Z,4.45
2022-08-19T17:13:49.605Z,8.07
2022-08-19T17:16:18.345Z,5.78
2022-08-19T17:18:53.144Z,10.48
2022-08-19T17:21:22.185Z,6.97
2022-08-19T17:23:51.105Z,5.47
2022-08-19T17:26:19.984Z,5.45
2022-08-19T17:28:51.764Z,3.60
2022-08-19T17:31:23.331Z,4.43
2022-08-19T17:33:52.484Z,4.95
2022-08-19T17:36:25.627Z,3.92
2022-08-19T17:38:56.094Z,3.45
2022-08-19T17:41:25.264Z,4.18
2022-08-19T17:43:56.440Z,3.75
2022-08-19T17:46:25.124Z,3.13
2022-08-19T17:48:57.808Z,3.17
2022-08-19T17:51:40.625Z,3.13
2022-08-19T17:54:12.336Z,5.55
2022-08-19T17:56:41.984Z,5.57
2022-08-19T17:59:14.164Z,6.93
2022-08-19T18:01:53.902Z,5.22
2022-08-19T18:04:25.197Z,5.00
2022-08-19T18:06:55.619Z,7.45
2022-08-19T18:09:26.749Z,8.65
2022-08-19T18:11:57.207Z,7.50
2022-08-19T18:14:33.966Z,7.25
2022-08-19T18:17:06.365Z,7.68
2022-08-19T18:19:40.750Z,5.68
2022-08-19T18:22:12.564Z,7.03
2022-08-19T18:24:41.889Z,6.30
2022-08-19T18:27:11.344Z,8.43
2022-08-19T18:29:41.324Z,7.38
2022-08-19T18:32:13.643Z,7.15
2022-08-19T18:34:43.632Z,7.20
2022-08-19T18:37:12.508Z,8.10
2022-08-19T18:39:58.337Z,8.60
2022-08-19T18:42:44.444Z,6.43
2022-08-19T18:45:31.744Z,6.70
2022-08-19T18:48:27.368Z,6.55
2022-08-19T18:50:58.994Z,10.23
2022-08-19T18:53:29.625Z,6.95
2022-08-19T18:55:58.346Z,5.35
2022-08-19T18:58:32.522Z,6.75
2022-08-19T19:01:11.473Z,9.23
2022-08-19T19:03:44.526Z,7.60
2022-08-19T19:06:16.325Z,8.25
2022-08-19T19:08:45.276Z,9.88
2022-08-19T19:11:15.625Z,7.78
2022-08-19T19:13:47.175Z,8.77
2022-08-19T19:16:23.709Z,8.02
2022-08-19T19:18:53.224Z,7.63
2022-08-19T19:21:25.592Z,5.82
2022-08-19T19:23:55.754Z,7.90
2022-08-19T19:26:24.544Z,10.55
2022-08-19T19:28:53.414Z,10.73
2022-08-19T19:31:26.976Z,15.05
2022-08-19T19:33:56.912Z,20.20
2022-08-19T19:36:25.745Z,13.50
2022-08-19T19:38:54.686Z,12.73
2022-08-19T19:41:24.887Z,16.42
2022-08-19T19:44:09.914Z,8.23
2022-08-19T19:46:44.015Z,15.30
2022-08-19T19:49:12.914Z,12.50
2022-08-19T19:51:42.104Z,10.50
2022-08-19T19:54:14.224Z,10.43
2022-08-19T19:56:43.795Z,11.02
2022-08-19T19:59:12.664Z,9.20
2022-08-19T20:01:47.094Z,10.13
2022-08-19T20:04:20.110Z,10.68
2022-08-19T20:06:48.819Z,10.13
2022-08-19T20:09:19.938Z,12.90
2022-08-19T20:11:53.736Z,7.57
2022-08-19T20:14:25.335Z,14.23
2022-08-19T20:16:56.899Z,10.30
2022-08-19T20:19:28.100Z,8.68
2022-08-19T20:21:57.694Z,8.80
2022-08-19T20:24:34.985Z,12.07
2022-08-19T20:27:05.551Z,8.77
2022-08-19T20:29:40.051Z,6.78
2022-08-19T20:32:11.974Z,9.50
2022-08-19T20:34:41.592Z,9.05
2022-08-19T20:37:10.295Z,8.32
2022-08-19T20:39:39.824Z,12.50
2022-08-19T20:42:08.869Z,9.75
2022-08-19T20:44:39.202Z,9.38
2022-08-19T20:47:08.199Z,9.18
2022-08-19T20:49:40.199Z,9.23
2022-08-19T20:52:09.260Z,8.65
2022-08-19T20:54:37.879Z,8.20
2022-08-19T20:57:06.449Z,9.75
2022-08-19T20:59:35.699Z,10.65
2022-08-19T21:02:04.299Z,8.27
2022-08-19T21:04:33.329Z,7.95
2022-08-19T21:07:03.645Z,8.80
2022-08-19T21:09:32.255Z,8.55
2022-08-19T21:12:01.030Z,7.18
2022-08-19T21:14:29.845Z,7.40
2022-08-19T21:16:58.459Z,8.95
2022-08-19T21:19:27.130Z,7.50
2022-08-19T21:21:59.586Z,8.80
2022-08-19T21:24:32.078Z,8.93
2022-08-19T21:27:01.543Z,7.78
2022-08-19T21:29:54.659Z,10.00
2022-08-19T21:32:27.191Z,9.32
2022-08-19T21:35:01.590Z,10.88
2022-08-19T21:37:34.131Z,9.63
2022-08-19T21:40:14.319Z,9.48
2022-08-19T21:42:52.825Z,8.73
2022-08-19T21:45:26.400Z,7.50
2022-08-19T21:47:59.110Z,7.82
2022-08-19T21:50:29.385Z,12.07
2022-08-19T21:52:59.050Z,6.45
2022-08-19T21:55:30.800Z,7.20
2022-08-19T21:58:00.560Z,7.32
2022-08-19T22:00:32.238Z,8.73
2022-08-19T22:03:01.533Z,8.18
2022-08-19T22:05:31.639Z,8.55
2022-08-19T22:08:01.450Z,6.63
2022-08-19T22:10:35.980Z,8.70
2022-08-19T22:13:05.375Z,8.07
2022-08-19T22:15:34.210Z,11.07
2022-08-19T22:18:03.178Z,9.70
2022-08-19T22:20:33.370Z,6.78
2022-08-19T22:23:07.421Z,7.22
2022-08-19T22:25:40.191Z,6.25
2022-08-19T22:28:13.889Z,8.38
2022-08-19T22:30:44.110Z,6.88
2022-08-19T22:33:23.105Z,9.73
2022-08-19T22:36:05.839Z,8.82
2022-08-19T22:38:36.740Z,8.20
2022-08-19T22:41:11.932Z,7.68
2022-08-19T22:43:45.760Z,8.40
2022-08-19T22:46:17.695Z,7.38
2022-08-19T22:49:01.007Z,6.00
2022-08-19T22:51:49.860Z,10.32
2022-08-19T22:54:19.556Z,7.45
2022-08-19T22:56:52.375Z,7.47
2022-08-19T22:59:21.715Z,10.00
2022-08-19T23:01:51.080Z,8.43
2022-08-19T23:04:20.269Z,6.20
2022-08-19T23:06:49.060Z,9.15
2022-08-19T23:09:18.249Z,7.47
2022-08-19T23:11:54.139Z,8.73
2022-08-19T23:14:24.060Z,8.15
2022-08-19T23:16:56.966Z,7.75
2022-08-19T23:19:27.340Z,8.37
2022-08-19T23:21:56.396Z,5.80
2022-08-19T23:24:24.919Z,7.50
2022-08-19T23:27:12.489Z,6.53
2022-08-19T23:29:58.089Z,9.05
2022-08-19T23:32:26.994Z,6.97
2022-08-19T23:34:57.489Z,5.80
2022-08-19T23:37:28.699Z,8.10
2022-08-19T23:39:57.486Z,5.78
2022-08-19T23:42:27.520Z,8.95
2022-08-19T23:45:02.319Z,7.15
2022-08-19T23:47:32.702Z,11.32
2022-08-19T23:50:02.209Z,8.48
2022-08-19T23:52:30.891Z,5.97
2022-08-19T23:55:02.644Z,6.20
2022-08-19T23:57:32.620Z,6.57
